YWKM weather

Wyalkatchem Airport
Wyalkatchem, Western Australia, Australia

Public forecast

Using degrees Celsius for public forecast. Weather courtesy of forecast.io.

Closest aviation weather report (METAR) to Wyalkatchem Airport

Closest report is RAAF Base Pearce, 75.2 nm (139.4 km) WSW. Retrieved 2019/10/19 03:30 UTC (0 seconds ago):

YPEA 190330Z AUTO 09012KT 9999 // NCD 26/07 Q1015

Closest aviation forecast (TAF) to Wyalkatchem Airport

Closest forecast is RAAF Base Pearce, 75.2 nm (139.4 km) WSW. Retrieved 2019-10-19 00:33 UTC (3 hours ago):

TAF YPEA 182218Z 1900/1918 08020G32KT CAVOK FM190300 07012KT CAVOK BECMG 1911/1913 02008KT CAVOK